sensor_id;sensor_type;location;lat;lon;timestamp;noise_LAeq;noise_LA_min;noise_LA_max;noise_LA01;noise_LA95
72736;Laerm;60856;53.238;10.448;2022-12-29T07:44:14;46.61;45.24;49.80;;
72736;Laerm;60856;53.238;10.448;2022-12-29T07:46:39;46.60;45.35;49.80;;
72736;Laerm;60856;53.238;10.448;2022-12-29T07:49:04;46.61;45.30;50.43;;
72736;Laerm;60856;53.238;10.448;2022-12-29T07:51:30;46.63;45.31;50.56;;
72736;Laerm;60856;53.238;10.448;2022-12-29T07:53:56;46.65;45.40;49.63;;
72736;Laerm;60856;53.238;10.448;2022-12-29T07:56:21;46.69;45.34;50.40;;
72736;Laerm;60856;53.238;10.448;2022-12-29T07:58:46;46.66;45.39;49.77;;
72736;Laerm;60856;53.238;10.448;2022-12-29T08:01:12;46.65;45.25;49.73;;
72736;Laerm;60856;53.238;10.448;2022-12-29T08:03:37;46.64;45.45;49.62;;
72736;Laerm;60856;53.238;10.448;2022-12-29T08:06:03;46.63;45.43;49.86;;
72736;Laerm;60856;53.238;10.448;2022-12-29T08:08:28;46.60;45.39;49.28;;
72736;Laerm;60856;53.238;10.448;2022-12-29T08:10:53;46.60;45.38;50.04;;
72736;Laerm;60856;53.238;10.448;2022-12-29T08:13:19;46.65;45.19;49.53;;
72736;Laerm;60856;53.238;10.448;2022-12-29T08:15:44;46.66;45.30;49.74;;
72736;Laerm;60856;53.238;10.448;2022-12-29T08:18:09;46.68;45.43;49.52;;
72736;Laerm;60856;53.238;10.448;2022-12-29T08:20:34;46.68;45.28;49.92;;
72736;Laerm;60856;53.238;10.448;2022-12-29T08:23:00;46.67;45.37;49.95;;
72736;Laerm;60856;53.238;10.448;2022-12-29T08:25:25;46.67;45.40;49.65;;
72736;Laerm;60856;53.238;10.448;2022-12-29T08:27:50;46.63;45.32;50.00;;
72736;Laerm;60856;53.238;10.448;2022-12-29T08:30:15;46.60;45.20;50.65;;
72736;Laerm;60856;53.238;10.448;2022-12-29T08:32:41;46.60;45.27;49.55;;
72736;Laerm;60856;53.238;10.448;2022-12-29T08:35:06;46.60;45.14;49.98;;
72736;Laerm;60856;53.238;10.448;2022-12-29T08:37:32;46.59;45.34;49.54;;
72736;Laerm;60856;53.238;10.448;2022-12-29T08:39:58;46.64;45.12;49.89;;
72736;Laerm;60856;53.238;10.448;2022-12-29T08:42:24;46.65;45.28;50.05;;
72736;Laerm;60856;53.238;10.448;2022-12-29T08:44:55;46.64;45.21;50.03;;
72736;Laerm;60856;53.238;10.448;2022-12-29T08:47:21;46.64;45.23;50.36;;
72736;Laerm;60856;53.238;10.448;2022-12-29T08:49:46;46.67;45.21;49.52;;
72736;Laerm;60856;53.238;10.448;2022-12-29T08:52:11;46.77;45.42;50.11;;
72736;Laerm;60856;53.238;10.448;2022-12-29T08:54:36;46.75;45.38;49.73;;
72736;Laerm;60856;53.238;10.448;2022-12-29T08:57:01;46.75;45.29;49.70;;
72736;Laerm;60856;53.238;10.448;2022-12-29T08:59:27;46.60;45.37;50.01;;
72736;Laerm;60856;53.238;10.448;2022-12-29T09:01:52;46.61;45.31;49.57;;
72736;Laerm;60856;53.238;10.448;2022-12-29T09:04:17;46.59;45.26;49.63;;
72736;Laerm;60856;53.238;10.448;2022-12-29T09:06:43;46.61;45.27;49.78;;
72736;Laerm;60856;53.238;10.448;2022-12-29T09:09:08;46.63;45.51;49.59;;
72736;Laerm;60856;53.238;10.448;2022-12-29T09:11:34;46.61;45.34;50.36;;
72736;Laerm;60856;53.238;10.448;2022-12-29T09:13:59;46.59;45.26;49.70;;
72736;Laerm;60856;53.238;10.448;2022-12-29T09:16:24;46.61;45.17;49.69;;
72736;Laerm;60856;53.238;10.448;2022-12-29T09:18:49;46.62;45.25;49.41;;
72736;Laerm;60856;53.238;10.448;2022-12-29T09:21:15;46.65;45.43;49.73;;
72736;Laerm;60856;53.238;10.448;2022-12-29T09:23:40;46.62;45.34;49.92;;
72736;Laerm;60856;53.238;10.448;2022-12-29T09:26:06;46.60;45.49;49.77;;
72736;Laerm;60856;53.238;10.448;2022-12-29T09:28:32;46.60;45.34;49.71;;
72736;Laerm;60856;53.238;10.448;2022-12-29T09:30:57;46.60;45.10;49.75;;
72736;Laerm;60856;53.238;10.448;2022-12-29T09:33:23;46.64;45.24;50.23;;
72736;Laerm;60856;53.238;10.448;2022-12-29T09:35:53;46.65;45.38;49.49;;
72736;Laerm;60856;53.238;10.448;2022-12-29T09:38:19;46.64;45.40;50.14;;
72736;Laerm;60856;53.238;10.448;2022-12-29T09:40:46;46.74;45.36;49.70;;
72736;Laerm;60856;53.238;10.448;2022-12-29T09:43:20;46.98;45.46;49.95;;
72736;Laerm;60856;53.238;10.448;2022-12-29T09:45:58;46.67;45.38;49.67;;
72736;Laerm;60856;53.238;10.448;2022-12-29T09:48:27;46.63;45.31;50.58;;
72736;Laerm;60856;53.238;10.448;2022-12-29T09:50:55;46.60;45.17;50.73;;
72736;Laerm;60856;53.238;10.448;2022-12-29T09:53:27;46.64;45.07;49.63;;
72736;Laerm;60856;53.238;10.448;2022-12-29T09:55:55;46.61;45.13;49.71;;
72736;Laerm;60856;53.238;10.448;2022-12-29T10:01:06;46.63;45.25;50.08;;
72736;Laerm;60856;53.238;10.448;2022-12-29T10:03:46;46.62;45.38;49.83;;
72736;Laerm;60856;53.238;10.448;2022-12-29T10:06:17;46.65;45.36;49.77;;
72736;Laerm;60856;53.238;10.448;2022-12-29T10:16:39;46.65;45.13;49.43;;
72736;Laerm;60856;53.238;10.448;2022-12-29T10:22:11;47.34;45.45;50.12;;
72736;Laerm;60856;53.238;10.448;2022-12-29T10:24:39;47.13;45.55;50.35;;
72736;Laerm;60856;53.238;10.448;2022-12-29T10:27:05;46.95;45.38;50.36;;
72736;Laerm;60856;53.238;10.448;2022-12-29T10:29:37;46.98;45.48;50.34;;
72736;Laerm;60856;53.238;10.448;2022-12-29T10:32:06;46.88;45.33;50.07;;
72736;Laerm;60856;53.238;10.448;2022-12-29T10:34:39;47.27;45.41;50.51;;
72736;Laerm;60856;53.238;10.448;2022-12-29T10:37:20;47.42;45.56;50.74;;
72736;Laerm;60856;53.238;10.448;2022-12-29T10:39:51;47.08;45.18;50.58;;
72736;Laerm;60856;53.238;10.448;2022-12-29T10:42:36;46.61;45.27;49.70;;
72736;Laerm;60856;53.238;10.448;2022-12-29T10:45:05;46.61;45.32;49.84;;
72736;Laerm;60856;53.238;10.448;2022-12-29T10:47:33;46.64;45.28;49.84;;
72736;Laerm;60856;53.238;10.448;2022-12-29T10:50:00;46.63;45.45;49.70;;
72736;Laerm;60856;53.238;10.448;2022-12-29T10:52:26;46.64;45.43;49.88;;
72736;Laerm;60856;53.238;10.448;2022-12-29T10:59:45;46.70;45.07;49.96;;
72736;Laerm;60856;53.238;10.448;2022-12-29T11:07:04;46.62;45.38;49.77;;
72736;Laerm;60856;53.238;10.448;2022-12-29T11:09:32;46.61;45.37;49.59;;
72736;Laerm;60856;53.238;10.448;2022-12-29T11:11:58;46.65;45.45;49.78;;
72736;Laerm;60856;53.238;10.448;2022-12-29T11:14:30;46.62;45.36;49.79;;
72736;Laerm;60856;53.238;10.448;2022-12-29T11:17:03;46.64;45.23;50.17;;
72736;Laerm;60856;53.238;10.448;2022-12-29T11:19:30;46.67;45.29;49.89;;
72736;Laerm;60856;53.238;10.448;2022-12-29T11:22:18;46.69;45.22;49.70;;
72736;Laerm;60856;53.238;10.448;2022-12-29T11:24:46;46.75;45.45;50.27;;
72736;Laerm;60856;53.238;10.448;2022-12-29T11:27:16;46.60;45.27;49.87;;
72736;Laerm;60856;53.238;10.448;2022-12-29T11:29:42;46.63;45.43;49.85;;
72736;Laerm;60856;53.238;10.448;2022-12-29T11:32:12;46.61;45.23;49.70;;
72736;Laerm;60856;53.238;10.448;2022-12-29T11:34:38;46.61;45.28;49.54;;
72736;Laerm;60856;53.238;10.448;2022-12-29T11:37:10;46.62;45.37;49.61;;
72736;Laerm;60856;53.238;10.448;2022-12-29T11:39:38;46.63;45.14;50.74;;
72736;Laerm;60856;53.238;10.448;2022-12-29T11:42:04;46.63;45.39;49.73;;
72736;Laerm;60856;53.238;10.448;2022-12-29T11:44:37;46.65;45.11;50.15;;
72736;Laerm;60856;53.238;10.448;2022-12-29T11:47:06;46.63;44.76;50.35;;
72736;Laerm;60856;53.238;10.448;2022-12-29T11:49:34;46.64;45.34;49.76;;
72736;Laerm;60856;53.238;10.448;2022-12-29T11:51:59;46.63;45.29;49.79;;
72736;Laerm;60856;53.238;10.448;2022-12-29T11:54:27;46.64;45.26;50.20;;
72736;Laerm;60856;53.238;10.448;2022-12-29T11:56:55;46.66;45.36;49.96;;
72736;Laerm;60856;53.238;10.448;2022-12-29T12:01:52;46.63;45.39;49.86;;
72736;Laerm;60856;53.238;10.448;2022-12-29T12:04:17;46.62;45.26;49.56;;
72736;Laerm;60856;53.238;10.448;2022-12-29T12:06:46;46.69;45.30;50.01;;
72736;Laerm;60856;53.238;10.448;2022-12-29T12:09:19;46.68;45.15;49.67;;
72736;Laerm;60856;53.238;10.448;2022-12-29T12:11:47;46.63;45.29;49.55;;
72736;Laerm;60856;53.238;10.448;2022-12-29T12:14:18;46.65;45.37;49.81;;
72736;Laerm;60856;53.238;10.448;2022-12-29T12:16:53;46.64;45.18;49.61;;
72736;Laerm;60856;53.238;10.448;2022-12-29T12:19:22;46.64;45.37;49.76;;
72736;Laerm;60856;53.238;10.448;2022-12-29T12:21:50;46.68;45.32;50.10;;
72736;Laerm;60856;53.238;10.448;2022-12-29T12:31:59;46.63;45.14;49.69;;
72736;Laerm;60856;53.238;10.448;2022-12-29T12:34:37;46.62;45.36;50.42;;
72736;Laerm;60856;53.238;10.448;2022-12-29T12:37:10;46.63;45.41;50.02;;
72736;Laerm;60856;53.238;10.448;2022-12-29T12:42:22;46.64;45.30;49.66;;
72736;Laerm;60856;53.238;10.448;2022-12-29T13:00:20;46.62;45.35;49.84;;
72736;Laerm;60856;53.238;10.448;2022-12-29T13:10:49;46.58;45.26;49.75;;
72736;Laerm;60856;53.238;10.448;2022-12-29T13:18:27;46.61;45.22;49.87;;
72736;Laerm;60856;53.238;10.448;2022-12-29T13:21:07;46.61;45.36;49.93;;
72736;Laerm;60856;53.238;10.448;2022-12-29T13:26:23;46.62;45.22;49.60;;
72736;Laerm;60856;53.238;10.448;2022-12-29T13:29:08;46.65;45.07;50.25;;
72736;Laerm;60856;53.238;10.448;2022-12-29T13:31:48;46.70;45.32;50.03;;
72736;Laerm;60856;53.238;10.448;2022-12-29T13:36:42;46.68;45.29;50.05;;
72736;Laerm;60856;53.238;10.448;2022-12-29T13:41:47;46.78;45.34;49.71;;
72736;Laerm;60856;53.238;10.448;2022-12-29T13:44:22;46.80;45.28;50.63;;
72736;Laerm;60856;53.238;10.448;2022-12-29T13:46:49;46.74;45.26;49.99;;
72736;Laerm;60856;53.238;10.448;2022-12-29T13:49:21;46.73;45.36;49.97;;
72736;Laerm;60856;53.238;10.448;2022-12-29T13:51:54;46.69;45.40;50.18;;
72736;Laerm;60856;53.238;10.448;2022-12-29T13:54:29;46.69;45.41;49.55;;
72736;Laerm;60856;53.238;10.448;2022-12-29T13:57:02;46.76;45.45;49.85;;
72736;Laerm;60856;53.238;10.448;2022-12-29T13:59:48;46.79;45.21;50.07;;
72736;Laerm;60856;53.238;10.448;2022-12-29T14:04:55;46.76;45.27;50.16;;
72736;Laerm;60856;53.238;10.448;2022-12-29T14:07:20;46.73;45.29;49.96;;
72736;Laerm;60856;53.238;10.448;2022-12-29T14:09:50;46.69;45.46;49.69;;
72736;Laerm;60856;53.238;10.448;2022-12-29T14:15:20;46.69;45.51;49.83;;
72736;Laerm;60856;53.238;10.448;2022-12-29T14:17:43;46.75;45.34;50.23;;
72736;Laerm;60856;53.238;10.448;2022-12-29T14:20:19;46.74;45.51;50.36;;
72736;Laerm;60856;53.238;10.448;2022-12-29T14:23:01;46.73;45.25;49.88;;
72736;Laerm;60856;53.238;10.448;2022-12-29T14:28:33;46.79;45.43;50.00;;
72736;Laerm;60856;53.238;10.448;2022-12-29T14:31:00;46.69;45.37;50.21;;
72736;Laerm;60856;53.238;10.448;2022-12-29T14:33:26;46.72;45.38;49.80;;
72736;Laerm;60856;53.238;10.448;2022-12-29T14:35:52;46.68;45.14;49.75;;
72736;Laerm;60856;53.238;10.448;2022-12-29T14:38:25;46.71;45.33;49.61;;
72736;Laerm;60856;53.238;10.448;2022-12-29T14:40:51;46.79;45.35;50.18;;
72736;Laerm;60856;53.238;10.448;2022-12-29T14:43:21;46.77;45.31;49.61;;
72736;Laerm;60856;53.238;10.448;2022-12-29T14:45:51;46.85;45.36;50.07;;
72736;Laerm;60856;53.238;10.448;2022-12-29T14:50:49;46.83;45.34;49.67;;
72736;Laerm;60856;53.238;10.448;2022-12-29T14:55:58;46.80;45.38;50.33;;
72736;Laerm;60856;53.238;10.448;2022-12-29T15:03:44;46.59;45.19;49.72;;
72736;Laerm;60856;53.238;10.448;2022-12-29T15:06:11;46.61;45.26;50.01;;
